D/T METAR WX W/SPE G/SPE TEMP DEWP FEEL
31/01/23 07:50 EGPF 310750Z AUTO 26018KT 9999 FEW041 06/02 Q1014 20.7mph 6°C 2°C 4.4°C
31/01/23 04:20 EGPF 310420Z AUTO 24016KT 9999 FEW036 08/04 Q1013 18.4mph 8°C 4°C 7.0°C
30/01/23 22:20 EGPF 302220Z AUTO 22017KT 9999 -RA BKN012 OVC038 08/07 Q1016 -RA 19.6mph 8°C 7°C 8.0°C
30/01/23 13:20 EGPF 301320Z AUTO 31010KT 9999 FEW023 09/05 Q1022 11.5mph 9°C 5°C 8.3°C
30/01/23 12:20 EGPF 301220Z AUTO 25008KT 9999 BKN037/// //////TCU 08/04 Q1022 9.2mph 8°C 4°C 7.0°C
30/01/23 11:20 EGPF 301120Z AUTO 25010KT 9999 BKN033 BKN043 08/04 Q1022 11.5mph 8°C 4°C 7.0°C
30/01/23 10:20 EGPF 301020Z AUTO 25009KT 9999 SCT035 06/03 Q1021 10.4mph 6°C 3°C 4.7°C
30/01/23 07:50 EGPF 300750Z AUTO 28004KT 220V330 9999 -RA SCT022 BKN029 BKN039 06/03 Q1019 -RA 4.6mph 6°C 3°C 4.7°C
30/01/23 06:50 EGPF 300650Z AUTO 29012KT 9999 SCT028 06/03 Q1018 13.8mph 6°C 3°C 4.7°C
09/01/23 06:50 EGPF 090650Z AUTO 25009KT 9999 -RA FEW031 SCT040 05/03 Q0988 -RA 10.4mph 5°C 3°C 3.7°C
09/01/23 05:50 EGPF 090550Z AUTO 23009KT 9999 -RA SCT029/// SCT033/// BKN041/// //////TCU 03/02 Q0987 -RA 10.4mph 3°C 2°C 1.4°C
09/01/23 05:20 EGPF 090520Z AUTO 25004KT 210V310 9999 FEW030 04/02 Q0986 4.6mph 4°C 2°C 2.4°C
09/01/23 04:50 EGPF 090450Z AUTO 27003KT 9999 FEW040/// //////TCU 05/03 Q0986 3.5mph 5°C 3°C 3.7°C
09/01/23 04:20 EGPF 090420Z AUTO 27004KT 9999 SCT028 BKN037 05/04 Q0985 4.6mph 5°C 4°C 4.0°C
09/01/23 03:20 EGPF 090320Z AUTO 26005KT 9999 BKN023 05/04 Q0984 5.8mph 5°C 4°C 4.0°C
09/01/23 02:50 EGPF 090250Z AUTO 24009KT 9999 SCT020/// BKN025/// //////TCU 05/03 Q0984 10.4mph 5°C 3°C 3.7°C
09/01/23 02:20 EGPF 090220Z AUTO 22011KT 9999 FEW022/// BKN027/// BKN032/// //////CB 05/03 Q0983 12.7mph 5°C 3°C 3.7°C
09/01/23 01:50 EGPF 090150Z AUTO 22009KT 9999 SCT039/// //////CB 04/03 Q0983 10.4mph 4°C 3°C 2.7°C
09/01/23 00:50 EGPF 090050Z AUTO 24006KT 9999 -RA FEW015/// SCT020/// BKN029/// //////CB 05/04 Q0982 -RA 6.9mph 5°C 4°C 4.0°C
09/01/23 00:20 EGPF 090020Z AUTO 24011KT 9000 -RA SCT025/// BKN034/// BKN049/// //////CB 05/05 Q0981 -RA 12.7mph 5°C 5°C 4.3°C
08/01/23 23:50 EGPF 082350Z AUTO VRB03KT 9999 -RA FEW025/// BKN049/// //////TCU 04/03 Q0981 RERA -RA 3.5mph 4°C 3°C 2.7°C
08/01/23 23:20 EGPF 082320Z AUTO 27003KT 220V320 9999 -RA FEW022/// BKN036/// //////TCU 03/02 Q0981 -RA 3.5mph 3°C 2°C 1.4°C
08/01/23 22:50 EGPF 082250Z AUTO 07002KT 9999 SCT024/// BKN033/// //////TCU 03/02 Q0981 2.3mph 3°C 2°C 1.4°C
08/01/23 22:20 EGPF 082220Z AUTO 06002KT 9999 SCT026/// BKN034/// //////TCU 02/01 Q0980 2.3mph 2°C 1°C 0.1°C
08/01/23 20:50 EGPF 082050Z AUTO VRB01KT 9999 FEW009 SCT016 02/01 Q0979 1.2mph 2°C 1°C 0.1°C
08/01/23 19:20 EGPF 081920Z AUTO 16005KT 110V190 9999 -RA BKN030/// OVC044/// //////CB 04/02 Q0978 -RA 5.8mph 4°C 2°C 2.4°C
08/01/23 18:50 EGPF 081850Z AUTO 20012KT 9999 -RA BKN011/// OVC034/// //////TCU 04/02 Q0979 -RA 13.8mph 4°C 2°C 2.4°C
08/01/23 18:20 EGPF 081820Z AUTO 21011KT 9999 -RA BKN012/// OVC025/// //////TCU 05/03 Q0979 -RA 12.7mph 5°C 3°C 3.7°C
08/01/23 17:50 EGPF 081750Z AUTO 18012KT 7000 -RA BKN013/// BKN017/// OVC030/// //////TCU 05/03 Q0978 -RA 13.8mph 5°C 3°C 3.7°C
08/01/23 17:20 EGPF 081720Z AUTO 18011KT 4500 -DZ BKN013/// OVC018/// //////TCU 05/04 Q0978 -DZ 12.7mph 5°C 4°C 4.0°C
08/01/23 16:50 EGPF 081650Z AUTO 18013KT 6000 -RA BKN014/// OVC021/// //////TCU 05/03 Q0978 -RA 15.0mph 5°C 3°C 3.7°C
08/01/23 16:20 EGPF 081620Z AUTO 18013KT 6000 -RA BKN022/// OVC033/// //////TCU 06/02 Q0978 -RA 15.0mph 6°C 2°C 4.4°C
08/01/23 15:50 EGPF 081550Z AUTO 18012KT 9999 BKN028 OVC033 06/01 Q0978 13.8mph 6°C 1°C 4.1°C
08/01/23 14:50 EGPF 081450Z AUTO 19008KT 9999 FEW036 06/01 Q0978 9.2mph 6°C 1°C 4.1°C
08/01/23 13:50 EGPF 081350Z AUTO 19010KT 9999 BKN033 07/01 Q0979 11.5mph 7°C 1°C 5.1°C
08/01/23 13:20 EGPF 081320Z AUTO 18013KT 9999 SCT031 07/02 Q0979 15.0mph 7°C 2°C 5.4°C
08/01/23 12:50 EGPF 081250Z AUTO 19012KT 9999 FEW032 08/02 Q0980 13.8mph 8°C 2°C 6.4°C
08/01/23 12:20 EGPF 081220Z AUTO 19016KT 9999 NCD 08/03 Q0980 18.4mph 8°C 3°C 6.7°C
08/01/23 11:50 EGPF 081150Z AUTO 20015KT 9999 NCD 07/03 Q0980 17.3mph 7°C 3°C 5.7°C
08/01/23 11:20 EGPF 081120Z AUTO 20015KT 9999 NCD 07/02 Q0980 17.3mph 7°C 2°C 5.4°C
08/01/23 10:50 EGPF 081050Z AUTO 19015KT 9999 NCD 06/02 Q0980 17.3mph 6°C 2°C 4.4°C
08/01/23 10:20 EGPF 081020Z AUTO 20019KT 9999 NCD 06/02 Q0980 21.9mph 6°C 2°C 4.4°C
08/01/23 09:50 EGPF 080950Z AUTO 20016KT 9999 NCD 06/02 Q0980 18.4mph 6°C 2°C 4.4°C
08/01/23 09:20 EGPF 080920Z AUTO 18016G26KT 9999 FEW039 BKN046 07/02 Q0980 18.4mph 29.9mph 7°C 2°C 5.4°C
08/01/23 08:50 EGPF 080850Z AUTO 18018KT 9999 SCT039 BKN047 07/02 Q0980 20.7mph 7°C 2°C 5.4°C
08/01/23 08:20 EGPF 080820Z AUTO 19015KT 9999 BKN034 BKN047 07/02 Q0980 17.3mph 7°C 2°C 5.4°C
08/01/23 07:50 EGPF 080750Z AUTO 19014KT 9999 BKN033 07/02 Q0980 16.1mph 7°C 2°C 5.4°C
08/01/23 07:20 EGPF 080720Z AUTO 19016KT 9999 SCT030 BKN039 07/03 Q0980 18.4mph 7°C 3°C 5.7°C
08/01/23 06:50 EGPF 080650Z AUTO 20016KT 9999 BKN029 07/03 Q0980 18.4mph 7°C 3°C 5.7°C
08/01/23 06:20 EGPF 080620Z AUTO 19016KT 9999 SCT032 BKN044 07/03 Q0980 18.4mph 7°C 3°C 5.7°C
08/01/23 05:50 EGPF 080550Z AUTO 19014KT 9999 BKN030 BKN041 07/03 Q0980 16.1mph 7°C 3°C 5.7°C
08/01/23 05:20 EGPF 080520Z AUTO 20017KT 9999 FEW028 SCT034 OVC040 07/03 Q0980 19.6mph 7°C 3°C 5.7°C
08/01/23 04:50 EGPF 080450Z AUTO 21015KT 9999 -RA FEW029 BKN046 07/04 Q0981 -RA 17.3mph 7°C 4°C 6.0°C
08/01/23 04:20 EGPF 080420Z AUTO 21019KT 9999 SCT032/// BKN042/// //////TCU 08/04 Q0981 21.9mph 8°C 4°C 7.0°C
08/01/23 03:50 EGPF 080350Z AUTO 21019G30KT 9999 FEW034 SCT041 BKN048 08/04 Q0981 21.9mph 34.5mph 8°C 4°C 7.0°C
08/01/23 03:20 EGPF 080320Z AUTO 21019KT 9999 SCT036 SCT044 08/04 Q0981 21.9mph 8°C 4°C 7.0°C
08/01/23 02:50 EGPF 080250Z AUTO 21020KT 9999 FEW045 08/04 Q0980 23.0mph 8°C 4°C 7.0°C
08/01/23 02:20 EGPF 080220Z AUTO 21022G33KT 9999 FEW025 BKN037 08/04 Q0980 25.3mph 38.0mph 8°C 4°C 7.0°C
08/01/23 01:50 EGPF 080150Z AUTO 21022KT 9999 -RA FEW028 BKN043 08/05 Q0980 -RA 25.3mph 8°C 5°C 7.3°C
08/01/23 01:20 EGPF 080120Z AUTO 21024KT 7000 -RA FEW026 BKN031 OVC046 08/05 Q0979 -RA 27.6mph 8°C 5°C 7.3°C
08/01/23 00:20 EGPF 080020Z AUTO 20022KT 9999 -RA BKN029/// OVC041/// //////TCU 08/05 Q0979 -RA 25.3mph 8°C 5°C 7.3°C
07/01/23 23:50 EGPF 072350Z AUTO 20019G30KT 7000 -RA BKN024/// BKN032/// //////TCU 08/05 Q0979 -RA 21.9mph 34.5mph 8°C 5°C 7.3°C
07/01/23 23:20 EGPF 072320Z AUTO 20018KT 9999 -RA BKN027/// BKN038/// //////TCU 08/05 Q0979 -RA 20.7mph 8°C 5°C 7.3°C
07/01/23 22:50 EGPF 072250Z AUTO 19017KT 9000 -RA SCT030 BKN039 08/05 Q0979 -RA 19.6mph 8°C 5°C 7.3°C
07/01/23 22:20 EGPF 072220Z AUTO 19016KT 9999 SCT030 BKN042 08/04 Q0979 18.4mph 8°C 4°C 7.0°C
07/01/23 21:50 EGPF 072150Z AUTO 19018KT 9999 BKN032 BKN042 08/04 Q0979 20.7mph 8°C 4°C 7.0°C
07/01/23 21:20 EGPF 072120Z AUTO 20019KT 9999 BKN033 BKN044 08/04 Q0979 21.9mph 8°C 4°C 7.0°C
07/01/23 20:50 EGPF 072050Z AUTO 19019KT 9999 -RA BKN035/// //////TCU 08/04 Q0979 -RA 21.9mph 8°C 4°C 7.0°C
07/01/23 20:20 EGPF 072020Z AUTO 19020G31KT 9999 SCT035 BKN041 09/04 Q0979 23.0mph 35.7mph 9°C 4°C 8.0°C
07/01/23 19:50 EGPF 071950Z AUTO 18019KT 9999 -RA BKN042/// //////TCU 08/04 Q0979 -RA 21.9mph 8°C 4°C 7.0°C
07/01/23 19:20 EGPF 071920Z AUTO 17017G30KT 9999 BKN048 08/04 Q0979 19.6mph 34.5mph 8°C 4°C 7.0°C
07/01/23 18:50 EGPF 071850Z AUTO 17017G29KT 9999 BKN046 08/03 Q0980 19.6mph 33.4mph 8°C 3°C 6.7°C
07/01/23 18:20 EGPF 071820Z AUTO 17012KT 9999 BKN044 08/03 Q0980 13.8mph 8°C 3°C 6.7°C
07/01/23 17:50 EGPF 071750Z AUTO 17015KT 9999 BKN041 BKN048 08/03 Q0981 17.3mph 8°C 3°C 6.7°C
07/01/23 16:50 EGPF 071650Z AUTO 19011KT 9999 NCD 07/03 Q0981 12.7mph 7°C 3°C 5.7°C
07/01/23 16:20 EGPF 071620Z AUTO 19015G25KT 9999 NCD 08/04 Q0981 17.3mph 28.8mph 8°C 4°C 7.0°C
07/01/23 15:50 EGPF 071550Z AUTO 18016KT 9999 NCD 08/04 Q0981 18.4mph 8°C 4°C 7.0°C
07/01/23 15:20 EGPF 071520Z AUTO 16013KT 9999 BKN028/// BKN036/// //////TCU 08/04 Q0982 15.0mph 8°C 4°C 7.0°C
07/01/23 14:50 EGPF 071450Z AUTO 16013KT 9999 -RA SCT039/// //////CB 08/04 Q0982 -RA 15.0mph 8°C 4°C 7.0°C
07/01/23 14:20 EGPF 071420Z AUTO 15008KT 9999 FEW049 08/04 Q0983 9.2mph 8°C 4°C 7.0°C
07/01/23 13:20 EGPF 071320Z AUTO 15005KT 100V200 9999 FEW021 09/05 Q0984 5.8mph 9°C 5°C 8.3°C
07/01/23 12:50 EGPF 071250Z AUTO 18007KT 140V240 9999 FEW020 SCT024 09/06 Q0985 8.1mph 9°C 6°C 8.6°C
07/01/23 12:20 EGPF 071220Z AUTO 17007KT 9999 FEW042 09/05 Q0985 8.1mph 9°C 5°C 8.3°C
07/01/23 11:50 EGPF 071150Z AUTO 18011KT 9999 -RA FEW019/// SCT036/// BKN042/// //////TCU 08/06 Q0985 -RA 12.7mph 8°C 6°C 7.6°C
07/01/23 11:20 EGPF 071120Z AUTO 14005KT 9999 -RA BKN015/// OVC037/// //////TCU 08/06 Q0986 -RA 5.8mph 8°C 6°C 7.6°C
07/01/23 10:50 EGPF 071050Z AUTO 11003KT 9999 BKN023 OVC027 08/06 Q0986 3.5mph 8°C 6°C 7.6°C
07/01/23 10:20 EGPF 071020Z 13003KT 030V200 9999 OVC028 08/06 Q0986 3.5mph 8°C 6°C 7.6°C
07/01/23 09:50 EGPF 070950Z AUTO 06003KT 9999 BKN034 OVC040 07/06 Q0987 3.5mph 7°C 6°C 6.6°C
07/01/23 09:20 EGPF 070920Z AUTO 06003KT 9999 BKN038 07/06 Q0987 3.5mph 7°C 6°C 6.6°C
07/01/23 08:50 EGPF 070850Z AUTO 06004KT 360V110 9999 FEW036 07/06 Q0987 4.6mph 7°C 6°C 6.6°C
07/01/23 08:20 EGPF 070820Z AUTO 09005KT 9999 NCD 07/06 Q0987 5.8mph 7°C 6°C 6.6°C
07/01/23 07:50 EGPF 070750Z AUTO 09006KT 9999 -RA FEW042/// //////TCU 07/06 Q0988 -RA 6.9mph 7°C 6°C 6.6°C
07/01/23 07:20 EGPF 070720Z AUTO 14004KT 120V180 9999 -RA BKN013/// BKN024/// BKN030/// //////TCU 08/06 Q0988 -RA 4.6mph 8°C 6°C 7.6°C
07/01/23 06:50 EGPF 070650Z AUTO 16005KT 9999 -RA FEW040/// SCT048/// //////TCU 07/06 Q0989 -RA 5.8mph 7°C 6°C 6.6°C
07/01/23 06:20 EGPF 070620Z AUTO 22003KT 160V260 9000 -RA BKN040/// //////TCU 07/06 Q0989 -RA 3.5mph 7°C 6°C 6.6°C
07/01/23 05:50 EGPF 070550Z AUTO 23005KT 160V260 9999 -RA SCT044/// //////TCU 08/06 Q0989 -RA 5.8mph 8°C 6°C 7.6°C